Time;durP1;ratioP1;P1;durP2;ratioP2;P2;SDS_P1;SDS_P2;PMS_P1;PMS_P2;Temp;Humidity;BMP_temperature;BMP_pressure;BME280_temperature;BME280_humidity;BME280_pressure;Samples;Min_cycle;Max_cycle;Signal;HPM_P1;HPM_P2
2020/12/17 03:33:56;;;;;;;28.83;15.58;;;;;;;1.97;100.00;100871.91;1774955;77;21135;-48
2020/12/17 03:36:25;;;;;;;30.48;16.48;;;;;;;1.98;100.00;100874.59;1807363;78;22024;-54
2020/12/17 03:38:52;;;;;;;29.25;15.30;;;;;;;1.99;100.00;100873.70;1811845;77;22743;-53
2020/12/17 03:41:20;;;;;;;26.07;16.12;;;;;;;2.00;100.00;100880.80;1812166;77;21526;-54
2020/12/17 03:43:48;;;;;;;26.90;15.80;;;;;;;2.00;100.00;100894.09;1811440;77;21145;-54
2020/12/17 03:46:15;;;;;;;26.50;16.05;;;;;;;2.03;100.00;100889.24;1811725;77;21626;-53
2020/12/17 03:48:43;;;;;;;28.40;16.12;;;;;;;2.04;100.00;100895.89;1810460;77;21145;-48
2020/12/17 03:51:11;;;;;;;27.02;16.02;;;;;;;2.04;100.00;100889.23;1811807;77;21431;-48
2020/12/17 03:53:39;;;;;;;28.32;15.90;;;;;;;2.03;100.00;100888.80;1810169;77;20963;-54
2020/12/17 03:56:06;;;;;;;29.92;17.65;;;;;;;2.05;100.00;100895.00;1812820;77;21090;-53
2020/12/17 03:58:34;;;;;;;24.82;15.08;;;;;;;2.06;100.00;100896.77;1808631;77;21157;-48
2020/12/17 04:01:02;;;;;;;27.52;15.72;;;;;;;2.06;100.00;100891.45;1807083;77;21027;-48
2020/12/17 04:03:29;;;;;;;27.27;15.95;;;;;;;2.08;100.00;100887.04;1809685;77;23040;-47
2020/12/17 04:05:57;;;;;;;28.47;16.52;;;;;;;2.09;100.00;100883.48;1811327;77;21184;-54
2020/12/17 04:08:25;;;;;;;27.13;16.37;;;;;;;2.09;100.00;100891.47;1809967;77;21177;-54
2020/12/17 04:10:53;;;;;;;28.35;15.70;;;;;;;2.11;100.00;100892.80;1806843;77;21104;-54
2020/12/17 04:13:21;;;;;;;28.75;15.80;;;;;;;2.10;100.00;100891.91;1805428;77;21121;-54
2020/12/17 04:15:49;;;;;;;28.57;15.32;;;;;;;2.13;100.00;100899.44;1807697;77;21293;-55
2020/12/17 04:18:17;;;;;;;28.92;16.87;;;;;;;2.13;100.00;100899.44;1807777;77;21030;-55
2020/12/17 04:20:44;;;;;;;29.52;17.12;;;;;;;2.15;100.00;100889.71;1807354;77;21499;-47
2020/12/17 04:23:12;;;;;;;25.55;16.60;;;;;;;2.13;100.00;100894.13;1807848;77;21495;-53
2020/12/17 04:25:39;;;;;;;27.82;16.75;;;;;;;2.10;100.00;100890.58;1807109;77;21130;-52
2020/12/17 04:28:07;;;;;;;24.87;15.10;;;;;;;2.10;100.00;100901.23;1785971;77;21376;-48
2020/12/17 04:30:35;;;;;;;28.52;15.98;;;;;;;2.09;100.00;100908.77;1805812;77;21122;-48
2020/12/17 04:33:03;;;;;;;26.85;16.17;;;;;;;2.09;100.00;100904.78;1807626;77;21157;-49
2020/12/17 04:35:30;;;;;;;30.27;16.75;;;;;;;2.08;100.00;100905.66;1810263;77;21814;-49
2020/12/17 04:37:58;;;;;;;27.77;16.48;;;;;;;2.09;100.00;100908.77;1810709;77;21475;-53
2020/12/17 04:40:26;;;;;;;27.25;16.02;;;;;;;2.10;100.00;100892.36;1806612;77;21372;-48
2020/12/17 04:42:54;;;;;;;27.98;16.25;;;;;;;2.10;100.00;100891.91;1807001;77;21145;-54
2020/12/17 04:45:22;;;;;;;26.42;16.82;;;;;;;2.13;100.00;100892.79;1807566;77;20967;-54
2020/12/17 04:47:50;;;;;;;30.40;16.95;;;;;;;2.15;100.00;100900.36;1788821;77;20994;-54
2020/12/17 04:50:18;;;;;;;26.55;15.45;;;;;;;2.14;100.00;100895.48;1786579;77;21114;-48
2020/12/17 04:52:48;;;;;;;33.75;17.12;;;;;;;2.13;100.00;100891.05;1747901;77;21441;-47
2020/12/17 04:55:17;;;;;;;27.67;16.80;;;;;;;2.14;100.00;100894.59;1724179;77;21137;-54
2020/12/17 04:57:46;;;;;;;28.52;17.32;;;;;;;2.14;100.00;100898.59;1811861;77;20992;-47
2020/12/17 05:00:15;;;;;;;20.65;14.40;;;;;;;2.14;100.00;100893.27;1810939;77;21003;-47
2020/12/17 05:02:45;;;;;;;27.62;16.55;;;;;;;2.14;100.00;100888.83;1811507;77;21149;-48
2020/12/17 05:05:14;;;;;;;23.73;15.17;;;;;;;2.14;100.00;100898.59;1811752;77;21334;-53
2020/12/17 05:07:42;;;;;;;24.95;14.70;;;;;;;2.15;100.00;100900.36;1811346;77;21157;-52
2020/12/17 05:10:10;;;;;;;26.10;15.00;;;;;;;2.14;100.00;100902.13;1811296;77;21176;-53
2020/12/17 05:12:37;;;;;;;30.48;17.57;;;;;;;2.16;100.00;100894.14;1811594;77;21082;-47
2020/12/17 05:15:05;;;;;;;28.95;17.07;;;;;;;2.13;100.00;100899.44;1811600;77;21114;-47
2020/12/17 05:17:33;;;;;;;31.48;17.12;;;;;;;2.12;100.00;100903.00;1812262;77;21442;-53
2020/12/17 05:20:00;;;;;;;31.30;17.82;;;;;;;2.13;100.00;100898.11;1812100;77;21112;-49
2020/12/17 05:22:28;;;;;;;27.35;15.80;;;;;;;2.14;100.00;100906.56;1811961;77;21153;-54
2020/12/17 05:24:56;;;;;;;29.85;16.32;;;;;;;2.14;100.00;100901.25;1812052;77;21134;-49
2020/12/17 05:27:26;;;;;;;30.23;15.75;;;;;;;2.15;100.00;100907.89;1740549;79;21546;-55
2020/12/17 05:29:55;;;;;;;27.52;16.20;;;;;;;2.15;100.00;100907.00;1790195;77;21530;-55
2020/12/17 05:32:23;;;;;;;23.67;16.07;;;;;;;2.14;100.00;100901.25;1810440;77;21182;-56
2020/12/17 05:34:51;;;;;;;26.25;15.70;;;;;;;2.15;100.00;100911.00;1807958;77;21138;-48
2020/12/17 05:37:21;;;;;;;25.05;14.98;;;;;;;2.15;100.00;100914.99;1810348;77;20966;-48
2020/12/17 05:39:51;;;;;;;31.65;17.82;;;;;;;2.17;100.00;100921.19;1739676;80;21134;-50
2020/12/17 05:42:19;;;;;;;26.75;16.65;;;;;;;2.16;100.00;100923.41;1772394;77;21504;-49
2020/12/17 05:44:46;;;;;;;27.93;16.30;;;;;;;2.20;100.00;100925.20;1812940;77;21180;-50
2020/12/17 05:55:51;;;;;;;33.78;17.52;;;;;;;2.23;100.00;100929.19;1810575;77;20975;-54
2020/12/17 05:58:19;;;;;;;31.25;17.75;;;;;;;2.18;100.00;100934.49;1799972;77;21410;-54
2020/12/17 06:00:48;;;;;;;29.70;17.30;;;;;;;2.23;100.00;100938.50;1796776;77;20998;-52
2020/12/17 06:03:21;;;;;;;30.65;17.65;;;;;;;2.26;100.00;100936.75;1809293;77;21412;-48
2020/12/17 06:05:49;;;;;;;27.50;17.55;;;;;;;2.31;100.00;100942.97;1790572;77;21696;-54
2020/12/17 06:08:18;;;;;;;31.17;19.00;;;;;;;2.32;100.00;100937.20;1786575;77;21137;-55
2020/12/17 06:10:48;;;;;;;35.60;20.12;;;;;;;2.33;100.00;100940.30;1810011;77;21817;-55
2020/12/17 06:13:16;;;;;;;35.10;20.20;;;;;;;2.33;100.00;100948.30;1809214;77;21684;-55
2020/12/17 06:15:46;;;;;;;38.92;21.27;;;;;;;2.34;100.00;100942.08;1810972;77;21029;-55
2020/12/17 06:18:14;;;;;;;31.75;17.98;;;;;;;2.36;100.00;100947.87;1810385;77;21581;-55
2020/12/17 06:20:43;;;;;;;32.42;19.25;;;;;;;2.40;100.00;100943.45;1788444;77;21487;-53
2020/12/17 06:23:13;;;;;;;35.15;20.37;;;;;;;2.41;99.70;100943.00;1809846;77;22106;-55
2020/12/17 06:25:41;;;;;;;32.58;18.62;;;;;;;2.42;99.58;100952.31;1809861;77;21141;-55
2020/12/17 06:28:36;;;;;;;30.90;18.42;;;;;;;2.44;99.58;100942.55;1810849;77;21231;-55
2020/12/17 06:31:05;;;;;;;38.48;20.43;;;;;;;2.47;99.51;100949.22;1809835;77;21503;-55
2020/12/17 06:33:35;;;;;;;34.27;19.77;;;;;;;2.51;99.43;100943.02;1811782;77;21847;-58
2020/12/17 06:36:25;;;;;;;34.20;20.95;;;;;;;2.51;99.27;100948.34;1814325;77;21375;-49
2020/12/17 06:38:53;;;;;;;41.25;21.65;;;;;;;2.55;99.17;100948.77;1795911;77;21168;-49
2020/12/17 06:41:24;;;;;;;37.85;20.80;;;;;;;2.57;99.01;100952.34;1802640;77;21094;-50
2020/12/17 06:43:52;;;;;;;33.65;20.05;;;;;;;2.61;98.93;100959.47;1805338;77;21118;-49
2020/12/17 06:46:30;;;;;;;36.35;20.45;;;;;;;2.68;98.62;100952.81;1804956;78;21172;-55
2020/12/17 06:49:07;;;;;;;36.35;20.62;;;;;;;2.74;97.95;100950.15;1852446;76;23542;-54
2020/12/17 06:51:41;;;;;;;38.15;21.30;;;;;;;2.68;97.52;100960.80;1821693;77;20998;-54
2020/12/17 06:54:23;;;;;;;33.53;19.85;;;;;;;2.63;97.36;100955.02;1818678;77;21366;-54
2020/12/17 06:57:16;;;;;;;39.98;21.52;;;;;;;2.60;97.37;100964.31;1819580;77;21569;-49
2020/12/17 06:59:52;;;;;;;39.63;23.92;;;;;;;2.60;97.35;100969.64;1820392;77;21001;-57
2020/12/17 07:02:40;;;;;;;39.20;20.82;;;;;;;2.63;97.08;100969.66;1818381;76;22769;-56
2020/12/17 07:05:08;;;;;;;35.65;19.27;;;;;;;2.59;96.73;100978.53;1765652;79;21580;-49
2020/12/17 07:07:43;;;;;;;34.15;19.42;;;;;;;2.56;96.46;100977.66;1726516;79;21364;-49
2020/12/17 07:10:27;;;;;;;32.40;19.60;;;;;;;2.54;96.45;100981.63;1761780;78;21056;-49
2020/12/17 07:13:02;;;;;;;33.13;18.60;;;;;;;2.61;96.49;100987.43;1823329;76;22689;-49
2020/12/17 07:15:36;;;;;;;34.43;20.08;;;;;;;2.56;96.06;100989.19;1770015;78;21194;-49
2020/12/17 07:18:25;;;;;;;37.58;20.45;;;;;;;2.54;95.81;100984.28;1773181;78;21455;-49
2020/12/17 07:21:06;;;;;;;34.27;18.90;;;;;;;2.50;95.67;100991.81;1762183;78;21100;-55
2020/12/17 07:23:37;;;;;;;36.45;20.50;;;;;;;2.50;95.68;100993.59;1769306;78;21000;-54
2020/12/17 07:26:13;;;;;;;39.27;21.37;;;;;;;2.57;95.79;101002.06;1809290;76;23352;-50
2020/12/17 07:28:41;;;;;;;40.15;22.65;;;;;;;2.52;95.73;101003.37;1789062;77;21402;-47
2020/12/17 07:31:09;;;;;;;44.13;23.60;;;;;;;2.54;95.84;101012.24;1771494;79;21969;-50
2020/12/17 07:33:41;;;;;;;42.85;25.27;;;;;;;2.55;95.64;101011.35;1768699;79;21178;-49
2020/12/17 07:36:10;;;;;;;39.80;23.47;;;;;;;2.54;95.57;101016.23;1769653;79;21041;-51
2020/12/17 07:38:38;;;;;;;41.48;23.85;;;;;;;2.55;95.63;101015.34;1766437;79;21540;-49
2020/12/17 07:41:23;;;;;;;37.85;21.27;;;;;;;2.57;95.65;101014.05;1767311;77;21728;-49
2020/12/17 07:43:51;;;;;;;43.42;24.57;;;;;;;2.57;95.39;101017.59;1769300;79;22236;-49
2020/12/17 07:46:39;;;;;;;46.02;24.20;;;;;;;2.58;95.16;101016.70;1768869;79;21018;-47
2020/12/17 07:49:26;;;;;;;32.38;18.20;;;;;;;2.55;95.03;101022.00;1685514;82;21601;-48
2020/12/17 07:51:54;;;;;;;30.52;17.15;;;;;;;2.61;95.09;101018.05;1707160;82;21133;-48
2020/12/17 07:54:22;;;;;;;31.25;17.20;;;;;;;2.65;94.53;101018.05;1733678;81;21022;-46
2020/12/17 07:56:51;;;;;;;30.45;17.73;;;;;;;2.66;94.19;101013.16;1708288;82;21208;-51
2020/12/17 07:59:18;;;;;;;35.45;18.92;;;;;;;2.67;94.16;101009.63;1677890;83;21585;-50
2020/12/17 08:01:46;;;;;;;34.95;19.37;;;;;;;2.71;93.92;101011.39;1735361;81;21481;-51
2020/12/17 08:04:14;;;;;;;34.78;19.42;;;;;;;2.79;93.81;101010.98;1657092;83;21116;-51
2020/12/17 08:06:42;;;;;;;34.78;18.62;;;;;;;2.80;93.40;101009.64;1707920;82;20944;-55
2020/12/17 08:09:10;;;;;;;36.55;20.75;;;;;;;2.81;93.27;101002.53;1735002;81;22213;-58
2020/12/17 08:11:39;;;;;;;34.45;19.98;;;;;;;2.82;93.12;101018.95;1735167;81;20982;-54
2020/12/17 08:14:07;;;;;;;39.73;22.52;;;;;;;2.80;92.97;101008.31;1679380;82;21708;-50
2020/12/17 08:16:35;;;;;;;37.63;21.65;;;;;;;2.79;93.05;101010.53;1735116;81;21151;-52
2020/12/17 08:19:03;;;;;;;37.40;21.02;;;;;;;2.86;93.31;101007.42;1707202;82;21113;-57
2020/12/17 08:21:32;;;;;;;40.45;21.62;;;;;;;2.87;92.69;101010.08;1708300;82;21213;-51
2020/12/17 08:23:59;;;;;;;36.10;21.70;;;;;;;2.83;92.56;101010.11;1734943;81;21387;-63
2020/12/17 08:26:29;;;;;;;38.15;22.07;;;;;;;2.79;92.38;101022.97;1704407;82;21637;-55
2020/12/17 08:28:57;;;;;;;35.13;20.72;;;;;;;2.79;92.68;101020.30;1760062;79;21133;-55
2020/12/17 08:31:26;;;;;;;34.78;19.70;;;;;;;2.79;92.47;101017.64;1758148;79;21169;-53
2020/12/17 08:33:59;;;;;;;32.95;18.87;;;;;;;2.78;92.35;101023.86;1761056;79;22299;-52
2020/12/17 08:36:37;;;;;;;35.00;21.17;;;;;;;2.81;92.08;101015.86;1806581;78;22871;-54
2020/12/17 08:39:12;;;;;;;30.65;18.23;;;;;;;2.75;92.16;101027.84;1777483;77;21506;-56
2020/12/17 08:41:52;;;;;;;35.88;20.48;;;;;;;2.75;92.10;101018.52;1752130;79;21597;-53
2020/12/17 08:44:32;;;;;;;39.75;20.50;;;;;;;2.76;92.18;101020.28;1756285;79;21128;-55
2020/12/17 08:47:02;;;;;;;32.73;19.75;;;;;;;2.76;92.17;101022.50;1760236;79;20958;-53
2020/12/17 08:49:30;;;;;;;35.45;19.50;;;;;;;2.77;92.08;101024.72;1762316;79;21073;-56
2020/12/17 08:51:58;;;;;;;35.23;19.02;;;;;;;2.72;91.89;101027.84;1761489;79;21531;-51
2020/12/17 08:54:32;;;;;;;32.63;19.32;;;;;;;2.75;92.21;101026.50;1757372;79;21370;-53
2020/12/17 08:57:06;;;;;;;40.38;22.45;;;;;;;2.79;92.03;101033.63;1760103;79;21464;-55
2020/12/17 08:59:34;;;;;;;37.28;20.35;;;;;;;2.79;91.85;101031.84;1757399;79;21021;-59
2020/12/17 09:02:02;;;;;;;36.23;21.07;;;;;;;2.81;91.93;101033.17;1761842;79;21195;-57
2020/12/17 09:04:30;;;;;;;36.20;19.52;;;;;;;2.84;91.74;101043.84;1758986;79;21238;-53
2020/12/17 09:07:00;;;;;;;34.73;20.32;;;;;;;2.84;91.68;101039.84;1757472;79;22054;-54
2020/12/17 09:09:29;;;;;;;38.40;20.77;;;;;;;2.84;91.60;101037.19;1757803;79;21596;-55
2020/12/17 09:11:59;;;;;;;37.48;22.40;;;;;;;2.82;91.65;101030.95;1757958;79;20980;-55
2020/12/17 09:14:32;;;;;;;39.00;22.13;;;;;;;2.81;91.75;101034.50;1756300;79;21013;-52
2020/12/17 09:17:13;;;;;;;39.65;22.60;;;;;;;2.81;91.79;101036.72;1753463;79;20988;-56
2020/12/17 09:19:43;;;;;;;41.30;23.92;;;;;;;2.80;91.79;101035.39;1754638;79;21365;-56
2020/12/17 09:22:11;;;;;;;41.18;22.27;;;;;;;2.78;91.84;101042.50;1756942;79;21147;-51
2020/12/17 09:24:48;;;;;;;37.28;21.17;;;;;;;2.78;91.82;101042.50;1758882;79;21125;-55
2020/12/17 09:27:26;;;;;;;37.05;20.92;;;;;;;2.81;91.84;101031.84;1820466;76;22683;-54
2020/12/17 09:30:19;;;;;;;34.85;18.87;;;;;;;2.75;91.70;101039.82;1767123;77;22189;-55
2020/12/17 09:32:59;;;;;;;37.42;19.55;;;;;;;2.78;91.72;101037.18;1761109;79;21375;-55
2020/12/17 09:35:37;;;;;;;37.88;21.65;;;;;;;2.77;91.62;101033.63;1763061;78;21036;-56
2020/12/17 09:38:08;;;;;;;38.85;21.87;;;;;;;2.75;91.58;101037.16;1760652;79;21017;-53
2020/12/17 09:43:14;;;;;;;38.65;21.27;;;;;;;2.81;91.76;101026.51;1867086;74;23005;-59
2020/12/17 09:45:48;;;;;;;35.52;20.48;;;;;;;2.75;91.63;101029.16;1854292;75;21030;-54
2020/12/17 09:48:24;;;;;;;38.00;20.72;;;;;;;2.73;91.60;101025.62;1853916;75;21179;-50
2020/12/17 09:51:01;;;;;;;39.90;22.48;;;;;;;2.71;91.58;101035.36;1852943;75;20962;-51
2020/12/17 09:53:31;;;;;;;37.13;20.57;;;;;;;2.70;91.75;101032.27;1818142;77;21602;-52
2020/12/17 09:55:59;;;;;;;41.88;22.60;;;;;;;2.68;91.90;101030.94;1815310;77;21009;-55
2020/12/17 09:58:27;;;;;;;39.95;23.45;;;;;;;2.68;92.01;101032.72;1818866;77;20991;-59
2020/12/17 10:00:55;;;;;;;40.12;22.10;;;;;;;2.68;92.13;101029.60;1816985;77;22165;-54
2020/12/17 10:03:22;;;;;;;46.15;25.95;;;;;;;2.71;92.17;101027.37;1816729;77;20992;-59
2020/12/17 10:05:51;;;;;;;43.40;24.60;;;;;;;2.75;92.22;101027.84;1817166;77;20982;-59
2020/12/17 10:08:18;;;;;;;39.70;23.85;;;;;;;2.77;92.19;101020.31;1767649;78;21126;-53
2020/12/17 10:10:46;;;;;;;40.43;23.12;;;;;;;2.80;92.14;101016.75;1816883;77;21120;-59
2020/12/17 10:13:14;;;;;;;42.85;25.32;;;;;;;2.81;92.05;101017.19;1763848;79;21358;-54
2020/12/17 10:15:41;;;;;;;41.33;23.60;;;;;;;2.83;92.07;101015.44;1817048;77;21029;-55
2020/12/17 10:18:09;;;;;;;50.20;25.15;;;;;;;2.86;92.03;101013.64;1791251;78;21677;-52
2020/12/17 10:20:37;;;;;;;45.73;26.37;;;;;;;2.86;91.90;101014.09;1816315;77;20954;-50
2020/12/17 10:23:04;;;;;;;41.68;24.05;;;;;;;2.86;91.79;101016.75;1781134;79;21165;-54
2020/12/17 10:25:32;;;;;;;48.05;25.02;;;;;;;2.88;91.90;101011.89;1806100;79;21334;-53
2020/12/17 10:28:01;;;;;;;50.33;27.82;;;;;;;2.93;91.80;101017.23;1806142;77;21017;-50
2020/12/17 10:30:28;;;;;;;53.87;29.15;;;;;;;2.97;91.75;101016.77;1806305;79;20938;-50
2020/12/17 10:32:57;;;;;;;57.23;28.70;;;;;;;2.98;91.59;101014.09;1805643;77;21132;-57
2020/12/17 10:35:25;;;;;;;58.30;31.02;;;;;;;2.97;91.53;101014.98;1805944;79;20950;-51
2020/12/17 10:37:53;;;;;;;52.25;29.02;;;;;;;2.96;91.60;101018.55;1804572;79;21344;-56
2020/12/17 10:40:20;;;;;;;51.90;30.15;;;;;;;2.97;91.53;101012.77;1805518;79;20962;-51
2020/12/17 10:42:50;;;;;;;50.25;27.90;;;;;;;2.96;91.45;101014.99;1799233;77;20998;-52
2020/12/17 10:45:18;;;;;;;52.05;29.75;;;;;;;2.97;91.46;101017.65;1806895;77;21137;-59
2020/12/17 10:47:49;;;;;;;54.53;30.20;;;;;;;3.01;91.44;101016.77;1805341;79;20954;-51
2020/12/17 10:50:16;;;;;;;46.70;27.27;;;;;;;3.01;91.42;101027.44;1803899;77;21434;-53
2020/12/17 10:52:44;;;;;;;50.20;29.15;;;;;;;3.03;91.40;101024.31;1807123;77;21600;-53
2020/12/17 10:55:12;;;;;;;50.30;29.05;;;;;;;3.05;91.35;101021.23;1805534;77;21136;-50
2020/12/17 10:57:39;;;;;;;56.68;32.28;;;;;;;3.09;91.28;101031.01;1805172;77;21112;-55
2020/12/17 11:00:07;;;;;;;55.03;31.17;;;;;;;3.11;91.19;101028.34;1805458;77;21136;-51
2020/12/17 11:02:35;;;;;;;56.98;30.62;;;;;;;3.13;91.10;101027.44;1806494;77;21430;-53
2020/12/17 11:05:03;;;;;;;53.90;29.70;;;;;;;3.12;91.03;101028.33;1803376;77;20998;-51
2020/12/17 11:07:31;;;;;;;51.90;29.20;;;;;;;3.11;90.97;101022.56;1804536;77;20970;-51
2020/12/17 11:09:59;;;;;;;52.78;29.35;;;;;;;3.10;90.97;101022.12;1805491;79;21561;-51
2020/12/17 11:12:27;;;;;;;56.37;31.82;;;;;;;3.10;91.09;101024.78;1803737;77;21136;-51
2020/12/17 11:14:54;;;;;;;64.35;35.52;;;;;;;3.13;91.00;101019.44;1805285;79;21178;-52
2020/12/17 11:17:22;;;;;;;60.63;33.53;;;;;;;3.15;90.99;101026.13;1805722;77;21106;-55
2020/12/17 11:19:50;;;;;;;62.83;33.20;;;;;;;3.15;90.94;101024.80;1805292;77;21002;-54
2020/12/17 11:22:18;;;;;;;55.98;31.52;;;;;;;3.14;90.92;101024.32;1803504;77;21037;-55
2020/12/17 11:24:45;;;;;;;61.92;33.73;;;;;;;3.13;90.91;101027.44;1804810;79;20974;-49
2020/12/17 11:27:13;;;;;;;55.12;31.65;;;;;;;3.13;90.89;101027.44;1807098;77;21361;-54
2020/12/17 11:29:41;;;;;;;58.87;32.80;;;;;;;3.12;90.90;101026.99;1803577;79;21133;-51
2020/12/17 11:32:08;;;;;;;62.35;35.05;;;;;;;3.12;90.87;101026.99;1804324;77;20955;-49
2020/12/17 11:34:36;;;;;;;60.00;33.83;;;;;;;3.14;90.99;101031.91;1806250;77;21136;-52
2020/12/17 11:37:04;;;;;;;61.48;35.70;;;;;;;3.19;90.98;101033.66;1805555;79;21006;-53
2020/12/17 11:39:32;;;;;;;63.00;35.20;;;;;;;3.18;90.81;101037.22;1801889;77;21352;-51
2020/12/17 11:42:00;;;;;;;59.67;33.73;;;;;;;3.18;90.78;101034.55;1803264;79;21152;-56
2020/12/17 11:44:27;;;;;;;66.15;35.83;;;;;;;3.15;90.73;101033.67;1803265;77;21402;-52
2020/12/17 11:46:55;;;;;;;69.67;38.60;;;;;;;3.12;90.75;101036.32;1799827;77;21241;-51
2020/12/17 11:49:23;;;;;;;65.00;38.13;;;;;;;3.09;90.82;101036.34;1802800;79;21077;-53
2020/12/17 11:51:52;;;;;;;71.62;36.42;;;;;;;3.07;90.99;101032.77;1802962;77;21953;-52
2020/12/17 11:54:20;;;;;;;67.53;36.70;;;;;;;3.11;91.09;101033.66;1803417;77;21569;-53
2020/12/17 11:56:49;;;;;;;65.60;37.60;;;;;;;3.14;91.03;101033.65;1802241;77;21517;-49
2020/12/17 11:59:17;;;;;;;56.08;32.60;;;;;;;3.19;90.97;101034.98;1773361;79;21557;-48
2020/12/17 12:01:46;;;;;;;65.95;35.40;;;;;;;3.21;90.77;101032.78;1800476;77;21017;-53
2020/12/17 12:04:14;;;;;;;61.73;33.78;;;;;;;3.23;90.57;101042.11;1802299;77;22263;-52
2020/12/17 12:06:42;;;;;;;71.07;39.67;;;;;;;3.21;90.51;101041.23;1803457;79;21002;-57
2020/12/17 12:09:10;;;;;;;67.47;39.75;;;;;;;3.20;90.45;101047.45;1798740;77;21131;-54
2020/12/17 12:11:38;;;;;;;61.90;35.83;;;;;;;3.17;90.47;101050.11;1804780;79;21101;-52
2020/12/17 12:14:06;;;;;;;70.65;38.05;;;;;;;3.17;90.52;101054.11;1802207;79;20959;-51
2020/12/17 12:16:35;;;;;;;64.10;36.83;;;;;;;3.14;90.58;101051.89;1769543;78;21395;-54
2020/12/17 12:19:03;;;;;;;67.75;37.45;;;;;;;3.15;90.59;101055.00;1811250;77;21144;-52
2020/12/17 12:21:31;;;;;;;76.42;39.15;;;;;;;3.15;90.63;101052.34;1798696;78;21116;-51
2020/12/17 12:23:59;;;;;;;73.45;38.90;;;;;;;3.15;90.67;101056.33;1817056;77;21593;-54
2020/12/17 12:26:27;;;;;;;68.22;38.20;;;;;;;3.13;90.77;101055.42;1763721;78;21169;-54
2020/12/17 12:28:55;;;;;;;72.08;39.10;;;;;;;3.15;90.96;101056.33;1817273;77;21210;-54
2020/12/17 12:31:23;;;;;;;70.70;37.70;;;;;;;3.13;91.01;101055.42;1779132;79;21209;-49
2020/12/17 12:33:51;;;;;;;72.50;40.43;;;;;;;3.13;91.21;101054.53;1818740;77;21477;-51
2020/12/17 12:36:19;;;;;;;69.85;41.00;;;;;;;3.12;91.30;101053.65;1765671;78;21027;-48
2020/12/17 12:38:46;;;;;;;65.25;36.85;;;;;;;3.11;91.45;101055.88;1818701;77;21053;-52
2020/12/17 12:41:14;;;;;;;67.40;38.08;;;;;;;3.08;91.77;101055.86;1781531;79;21373;-52
2020/12/17 12:43:42;;;;;;;63.83;34.53;;;;;;;3.07;92.19;101054.08;1793215;77;21199;-52
2020/12/17 12:46:10;;;;;;;67.62;36.30;;;;;;;3.04;92.38;101054.10;1821221;77;21019;-50
2020/12/17 12:48:38;;;;;;;64.32;33.88;;;;;;;3.02;92.73;101058.52;1793411;78;21536;-50
2020/12/17 12:51:06;;;;;;;57.08;33.08;;;;;;;3.00;92.91;101052.31;1824741;77;21146;-49
2020/12/17 12:53:33;;;;;;;70.25;36.20;;;;;;;3.00;93.23;101052.31;1822196;77;22263;-52
2020/12/17 12:56:01;;;;;;;68.70;36.40;;;;;;;3.01;93.47;101050.09;1822514;77;21003;-49
2020/12/17 12:58:29;;;;;;;69.95;36.35;;;;;;;3.05;93.74;101053.21;1821640;77;21196;-47
2020/12/17 13:00:57;;;;;;;73.55;38.35;;;;;;;3.05;93.75;101047.88;1820667;77;21110;-53
2020/12/17 13:03:25;;;;;;;64.87;34.92;;;;;;;3.03;94.11;101049.63;1821512;77;21679;-56
2020/12/17 13:05:53;;;;;;;65.08;34.73;;;;;;;3.00;94.41;101054.09;1822629;77;21372;-52
2020/12/17 13:08:20;;;;;;;68.05;36.75;;;;;;;2.95;94.69;101054.08;1796239;78;21152;-54
2020/12/17 13:10:48;;;;;;;73.02;37.10;;;;;;;2.95;95.13;101055.41;1785240;78;21045;-51
2020/12/17 13:13:16;;;;;;;71.82;39.80;;;;;;;2.94;95.29;101062.97;1805180;77;21564;-51
2020/12/17 13:15:44;;;;;;;69.07;36.98;;;;;;;2.91;95.53;101054.95;1808535;79;21607;-49
2020/12/17 13:18:13;;;;;;;63.35;35.05;;;;;;;2.86;95.72;101054.05;1807721;77;21384;-51
2020/12/17 13:20:42;;;;;;;68.60;35.70;;;;;;;2.87;95.97;101055.82;1807783;77;21400;-53
2020/12/17 13:23:10;;;;;;;74.32;39.75;;;;;;;2.89;96.31;101067.39;1806286;77;21652;-52
2020/12/17 13:25:38;;;;;;;67.58;36.68;;;;;;;2.88;96.61;101060.30;1800425;77;21698;-54
2020/12/17 13:28:06;;;;;;;66.45;37.38;;;;;;;2.90;96.72;101069.16;1778788;77;21096;-53
2020/12/17 13:30:34;;;;;;;68.20;36.90;;;;;;;2.93;96.87;101069.19;1810459;77;21366;-54
2020/12/17 13:33:01;;;;;;;69.55;36.60;;;;;;;2.95;97.03;101071.40;1810464;77;21668;-50
2020/12/17 13:35:31;;;;;;;66.62;35.48;;;;;;;2.94;96.96;101068.30;1807238;77;21017;-50
2020/12/17 13:38:00;;;;;;;70.78;37.88;;;;;;;2.94;97.09;101070.96;1808054;79;21066;-51
2020/12/17 13:40:27;;;;;;;65.83;33.60;;;;;;;2.95;96.91;101074.51;1808167;77;21096;-56
2020/12/17 13:42:55;;;;;;;64.25;34.00;;;;;;;2.93;96.90;101077.18;1808192;78;22303;-53
2020/12/17 13:45:24;;;;;;;57.83;31.90;;;;;;;2.93;96.97;101069.19;1804718;77;21650;-49
2020/12/17 13:47:52;;;;;;;72.35;36.60;;;;;;;2.92;97.06;101075.38;1804327;79;21112;-53
2020/12/17 13:50:21;;;;;;;72.47;36.48;;;;;;;2.93;97.23;101078.52;1803273;77;21138;-48
2020/12/17 13:52:49;;;;;;;64.22;34.13;;;;;;;2.93;97.31;101071.85;1804070;77;21887;-51
2020/12/17 13:55:17;;;;;;;67.82;37.30;;;;;;;2.95;97.33;101070.06;1775811;77;21474;-53
2020/12/17 13:57:45;;;;;;;67.87;35.55;;;;;;;2.94;97.34;101065.62;1807437;79;21129;-50
2020/12/17 14:00:15;;;;;;;64.37;33.88;;;;;;;2.91;97.36;101068.27;1802913;77;21148;-51
2020/12/17 14:02:42;;;;;;;68.78;37.23;;;;;;;2.89;97.62;101064.73;1805322;79;21102;-50
2020/12/17 14:05:13;;;;;;;70.37;36.03;;;;;;;2.91;97.84;101068.27;1801468;77;21207;-53
2020/12/17 14:07:40;;;;;;;64.15;34.33;;;;;;;2.91;97.95;101072.27;1805575;77;21549;-53
2020/12/17 14:10:08;;;;;;;67.67;37.48;;;;;;;2.92;98.01;101067.37;1797079;77;21196;-51
2020/12/17 14:12:38;;;;;;;69.70;35.43;;;;;;;2.91;98.18;101074.94;1801794;77;21179;-52
2020/12/17 14:15:06;;;;;;;77.78;35.15;;;;;;;2.92;98.34;101070.05;1803656;77;21505;-52
2020/12/17 14:17:34;;;;;;;77.42;42.40;;;;;;;2.92;98.43;101069.16;1804648;77;21107;-53
2020/12/17 14:20:01;;;;;;;103.25;51.77;;;;;;;2.92;98.56;101075.38;1804224;77;21364;-47
2020/12/17 14:22:30;;;;;;;78.02;39.10;;;;;;;2.93;98.66;101073.59;1805870;77;21213;-51
2020/12/17 14:24:58;;;;;;;71.28;38.23;;;;;;;2.91;98.72;101070.94;1802041;77;21553;-51
2020/12/17 14:27:27;;;;;;;69.75;36.68;;;;;;;2.89;98.86;101075.39;1801651;77;21167;-51
2020/12/17 14:29:55;;;;;;;64.35;35.38;;;;;;;2.88;99.06;101075.83;1802073;77;21125;-51
2020/12/17 14:32:23;;;;;;;67.03;35.45;;;;;;;2.89;99.26;101075.39;1801058;77;21352;-49
2020/12/17 14:34:50;;;;;;;72.82;37.85;;;;;;;2.91;99.36;101074.94;1799057;77;21144;-50
2020/12/17 14:37:18;;;;;;;76.35;40.88;;;;;;;2.92;99.39;101078.04;1801728;77;21144;-50
2020/12/17 14:39:46;;;;;;;74.00;38.58;;;;;;;2.93;99.47;101086.50;1801529;77;21183;-51
2020/12/17 14:42:14;;;;;;;70.08;37.28;;;;;;;2.92;99.54;101074.04;1804469;79;21100;-50
2020/12/17 14:44:42;;;;;;;68.70;37.50;;;;;;;2.92;99.55;101079.81;1783656;79;22320;-50
2020/12/17 14:47:10;;;;;;;75.85;37.70;;;;;;;2.92;99.69;101071.82;1809659;77;21585;-50
2020/12/17 14:49:38;;;;;;;71.33;35.50;;;;;;;2.92;99.89;101078.48;1809670;79;21100;-52
2020/12/17 14:52:07;;;;;;;73.12;36.10;;;;;;;2.90;100.00;101077.16;1807766;77;21558;-48
2020/12/17 14:54:35;;;;;;;80.47;41.88;;;;;;;2.89;100.00;101074.05;1806693;77;21568;-48
2020/12/17 14:57:06;;;;;;;71.47;38.92;;;;;;;2.89;100.00;101080.72;1809322;77;21889;-49
2020/12/17 14:59:34;;;;;;;70.12;36.45;;;;;;;2.89;100.00;101075.39;1806726;77;21562;-50
2020/12/17 15:02:02;;;;;;;77.20;39.80;;;;;;;2.89;100.00;101075.39;1809269;79;21140;-51
2020/12/17 15:04:30;;;;;;;69.85;36.17;;;;;;;2.89;100.00;101072.72;1808119;77;21072;-53
2020/12/17 15:06:57;;;;;;;81.63;39.27;;;;;;;2.88;100.00;101068.28;1807601;77;21123;-51
2020/12/17 15:09:25;;;;;;;78.75;39.38;;;;;;;2.88;100.00;101071.84;1808249;79;21366;-50